Terminal Aerodrome Forecast
Issued by NWS

Home | Current Version | Previous Version | Graphics & Text | Print | Product List | Glossary On
Versions: 1 2 3 4 5 6 7 8 9 10 11 12 13 14 15 16 17 18 19 20 21 22
000
FTUS43 KABR 281436 AAB
TAFATY
TAF AMD
KATY 281436Z 2815/2912 16013G20KT P6SM VCTS FEW017 BKN050CB
      TEMPO 2815/2816 -TSRA BKN050 OVC080CB
     FM290000 21009KT P6SM -SHRA VCTS SCT050CB BKN250
     FM290500 VRB06KT P6SM OVC250=

USA.gov is the U.S. government's official web portal to all federal, state and local government web resources and services.